sensor_id;sensor_type;location;lat;lon;timestamp;temperature;humidity
15844;DHT22;50807;52.436;13.346;2022-09-21T00:00:09;13.20;91.60
15844;DHT22;50807;52.436;13.346;2022-09-21T00:00:41;13.10;91.60
15844;DHT22;50807;52.436;13.346;2022-09-21T00:01:15;13.10;91.60
15844;DHT22;50807;52.436;13.346;2022-09-21T00:01:47;13.10;91.70
15844;DHT22;50807;52.436;13.346;2022-09-21T00:02:18;13.10;91.60
15844;DHT22;50807;52.436;13.346;2022-09-21T00:02:54;13.10;91.70
15844;DHT22;50807;52.436;13.346;2022-09-21T00:03:25;13.10;91.70
15844;DHT22;50807;52.436;13.346;2022-09-21T00:03:58;13.10;91.70
15844;DHT22;50807;52.436;13.346;2022-09-21T00:04:31;13.10;91.70
15844;DHT22;50807;52.436;13.346;2022-09-21T00:05:02;13.10;91.70
15844;DHT22;50807;52.436;13.346;2022-09-21T00:05:33;13.10;91.70
15844;DHT22;50807;52.436;13.346;2022-09-21T00:06:08;13.10;91.80
15844;DHT22;50807;52.436;13.346;2022-09-21T00:06:40;13.10;91.80
15844;DHT22;50807;52.436;13.346;2022-09-21T00:07:10;13.10;91.80
15844;DHT22;50807;52.436;13.346;2022-09-21T00:07:42;13.10;91.80
15844;DHT22;50807;52.436;13.346;2022-09-21T00:08:13;13.10;91.80
15844;DHT22;50807;52.436;13.346;2022-09-21T00:08:45;13.10;91.80
15844;DHT22;50807;52.436;13.346;2022-09-21T00:09:17;13.10;91.80
15844;DHT22;50807;52.436;13.346;2022-09-21T00:09:48;13.10;92.10
15844;DHT22;50807;52.436;13.346;2022-09-21T00:10:19;13.10;91.80
15844;DHT22;50807;52.436;13.346;2022-09-21T00:10:51;13.10;91.80
15844;DHT22;50807;52.436;13.346;2022-09-21T00:11:25;13.10;91.80
15844;DHT22;50807;52.436;13.346;2022-09-21T00:11:57;13.10;92.20
15844;DHT22;50807;52.436;13.346;2022-09-21T00:12:29;13.00;91.80
15844;DHT22;50807;52.436;13.346;2022-09-21T00:13:00;13.00;91.80
15844;DHT22;50807;52.436;13.346;2022-09-21T00:13:33;13.00;91.90
15844;DHT22;50807;52.436;13.346;2022-09-21T00:14:09;13.00;91.90
15844;DHT22;50807;52.436;13.346;2022-09-21T00:14:43;13.00;91.90
15844;DHT22;50807;52.436;13.346;2022-09-21T00:15:15;13.00;91.90
15844;DHT22;50807;52.436;13.346;2022-09-21T00:15:47;13.10;91.90
15844;DHT22;50807;52.436;13.346;2022-09-21T00:16:18;13.00;91.90
15844;DHT22;50807;52.436;13.346;2022-09-21T00:16:50;13.00;91.90
15844;DHT22;50807;52.436;13.346;2022-09-21T00:17:22;13.00;91.90
15844;DHT22;50807;52.436;13.346;2022-09-21T00:17:55;13.00;91.90
15844;DHT22;50807;52.436;13.346;2022-09-21T00:18:27;13.00;92.00
15844;DHT22;50807;52.436;13.346;2022-09-21T00:18:58;13.00;92.00
15844;DHT22;50807;52.436;13.346;2022-09-21T00:19:30;13.00;92.00
15844;DHT22;50807;52.436;13.346;2022-09-21T00:20:01;13.00;92.00
15844;DHT22;50807;52.436;13.346;2022-09-21T00:20:34;13.00;92.00
15844;DHT22;50807;52.436;13.346;2022-09-21T00:21:06;13.00;92.00
15844;DHT22;50807;52.436;13.346;2022-09-21T00:21:38;13.00;92.00
15844;DHT22;50807;52.436;13.346;2022-09-21T00:22:09;13.00;92.00
15844;DHT22;50807;52.436;13.346;2022-09-21T00:22:41;13.00;92.10
15844;DHT22;50807;52.436;13.346;2022-09-21T00:23:11;13.00;92.10
15844;DHT22;50807;52.436;13.346;2022-09-21T00:23:43;13.00;92.10
15844;DHT22;50807;52.436;13.346;2022-09-21T00:24:16;13.00;92.20
15844;DHT22;50807;52.436;13.346;2022-09-21T00:24:46;13.00;92.20
15844;DHT22;50807;52.436;13.346;2022-09-21T00:25:18;13.00;92.20
15844;DHT22;50807;52.436;13.346;2022-09-21T00:25:50;13.00;92.20
15844;DHT22;50807;52.436;13.346;2022-09-21T00:26:23;13.00;92.50
15844;DHT22;50807;52.436;13.346;2022-09-21T00:26:55;13.00;92.20
15844;DHT22;50807;52.436;13.346;2022-09-21T00:27:27;13.00;92.20
15844;DHT22;50807;52.436;13.346;2022-09-21T00:27:59;13.00;92.20
15844;DHT22;50807;52.436;13.346;2022-09-21T00:28:30;13.00;92.20
15844;DHT22;50807;52.436;13.346;2022-09-21T00:29:03;13.00;92.30
15844;DHT22;50807;52.436;13.346;2022-09-21T00:29:34;13.00;92.30
15844;DHT22;50807;52.436;13.346;2022-09-21T00:30:06;13.00;92.30
15844;DHT22;50807;52.436;13.346;2022-09-21T00:30:38;13.00;92.30
15844;DHT22;50807;52.436;13.346;2022-09-21T00:31:11;13.00;92.30
15844;DHT22;50807;52.436;13.346;2022-09-21T00:31:45;13.00;92.30
15844;DHT22;50807;52.436;13.346;2022-09-21T00:32:16;12.90;92.30
15844;DHT22;50807;52.436;13.346;2022-09-21T00:32:47;12.90;92.30
15844;DHT22;50807;52.436;13.346;2022-09-21T00:33:19;12.90;92.30
15844;DHT22;50807;52.436;13.346;2022-09-21T00:33:50;12.90;92.40
15844;DHT22;50807;52.436;13.346;2022-09-21T00:34:22;12.90;92.40
15844;DHT22;50807;52.436;13.346;2022-09-21T00:34:54;12.90;92.40
15844;DHT22;50807;52.436;13.346;2022-09-21T00:35:25;12.90;92.40
15844;DHT22;50807;52.436;13.346;2022-09-21T00:36:01;12.90;92.40
15844;DHT22;50807;52.436;13.346;2022-09-21T00:36:33;12.90;92.50
15844;DHT22;50807;52.436;13.346;2022-09-21T00:37:04;12.90;92.50
15844;DHT22;50807;52.436;13.346;2022-09-21T00:37:36;12.90;92.50
15844;DHT22;50807;52.436;13.346;2022-09-21T00:38:06;12.90;92.50
15844;DHT22;50807;52.436;13.346;2022-09-21T00:38:37;12.90;92.50
15844;DHT22;50807;52.436;13.346;2022-09-21T00:39:10;12.90;92.50
15844;DHT22;50807;52.436;13.346;2022-09-21T00:39:41;12.90;92.60
15844;DHT22;50807;52.436;13.346;2022-09-21T00:40:12;12.90;92.60
15844;DHT22;50807;52.436;13.346;2022-09-21T00:40:43;12.90;92.90
15844;DHT22;50807;52.436;13.346;2022-09-21T00:41:14;12.90;92.60
15844;DHT22;50807;52.436;13.346;2022-09-21T00:41:45;12.90;92.60
15844;DHT22;50807;52.436;13.346;2022-09-21T00:42:19;12.90;92.60
15844;DHT22;50807;52.436;13.346;2022-09-21T00:42:51;12.90;92.70
15844;DHT22;50807;52.436;13.346;2022-09-21T00:43:22;12.90;92.70
15844;DHT22;50807;52.436;13.346;2022-09-21T00:44:22;12.90;92.70
15844;DHT22;50807;52.436;13.346;2022-09-21T00:44:58;12.90;92.90
15844;DHT22;50807;52.436;13.346;2022-09-21T00:45:29;12.90;93.00
15844;DHT22;50807;52.436;13.346;2022-09-21T00:46:02;12.90;92.70
15844;DHT22;50807;52.436;13.346;2022-09-21T00:46:38;12.90;92.70
15844;DHT22;50807;52.436;13.346;2022-09-21T00:47:12;12.90;92.70
15844;DHT22;50807;52.436;13.346;2022-09-21T00:47:44;12.90;92.70
15844;DHT22;50807;52.436;13.346;2022-09-21T00:48:19;12.90;92.70
15844;DHT22;50807;52.436;13.346;2022-09-21T00:48:50;12.90;92.70
15844;DHT22;50807;52.436;13.346;2022-09-21T00:49:22;12.90;92.70
15844;DHT22;50807;52.436;13.346;2022-09-21T00:49:57;12.90;92.70
15844;DHT22;50807;52.436;13.346;2022-09-21T00:50:29;12.90;92.80
15844;DHT22;50807;52.436;13.346;2022-09-21T00:51:03;12.90;92.70
15844;DHT22;50807;52.436;13.346;2022-09-21T00:51:38;12.90;92.80
15844;DHT22;50807;52.436;13.346;2022-09-21T00:52:10;12.90;92.80
15844;DHT22;50807;52.436;13.346;2022-09-21T00:52:46;12.90;92.80
15844;DHT22;50807;52.436;13.346;2022-09-21T00:53:21;12.90;92.80
15844;DHT22;50807;52.436;13.346;2022-09-21T00:53:55;12.90;92.80
15844;DHT22;50807;52.436;13.346;2022-09-21T00:54:34;12.90;92.90
15844;DHT22;50807;52.436;13.346;2022-09-21T00:55:11;12.90;92.90
15844;DHT22;50807;52.436;13.346;2022-09-21T00:55:48;12.90;92.90
15844;DHT22;50807;52.436;13.346;2022-09-21T00:56:25;12.90;92.90
15844;DHT22;50807;52.436;13.346;2022-09-21T00:56:56;12.90;92.90
15844;DHT22;50807;52.436;13.346;2022-09-21T00:57:33;12.90;92.90
15844;DHT22;50807;52.436;13.346;2022-09-21T00:58:09;12.90;92.90
15844;DHT22;50807;52.436;13.346;2022-09-21T00:58:46;12.90;93.00
15844;DHT22;50807;52.436;13.346;2022-09-21T00:59:20;12.90;93.00
15844;DHT22;50807;52.436;13.346;2022-09-21T00:59:55;12.90;93.00
15844;DHT22;50807;52.436;13.346;2022-09-21T01:00:29;12.90;93.00
15844;DHT22;50807;52.436;13.346;2022-09-21T01:01:00;12.80;93.00
15844;DHT22;50807;52.436;13.346;2022-09-21T01:01:31;12.80;93.00
15844;DHT22;50807;52.436;13.346;2022-09-21T01:02:03;12.80;93.00
15844;DHT22;50807;52.436;13.346;2022-09-21T01:02:35;12.80;93.00
15844;DHT22;50807;52.436;13.346;2022-09-21T01:03:08;12.80;93.10
15844;DHT22;50807;52.436;13.346;2022-09-21T01:03:43;12.80;93.10
15844;DHT22;50807;52.436;13.346;2022-09-21T01:04:15;12.80;93.10
15844;DHT22;50807;52.436;13.346;2022-09-21T01:04:48;12.80;93.10
15844;DHT22;50807;52.436;13.346;2022-09-21T01:05:23;12.80;93.10
15844;DHT22;50807;52.436;13.346;2022-09-21T01:05:55;12.80;93.50
15844;DHT22;50807;52.436;13.346;2022-09-21T01:06:26;12.80;93.20
15844;DHT22;50807;52.436;13.346;2022-09-21T01:07:01;12.80;93.20
15844;DHT22;50807;52.436;13.346;2022-09-21T01:07:37;12.80;93.30
15844;DHT22;50807;52.436;13.346;2022-09-21T01:08:13;12.80;93.30
15844;DHT22;50807;52.436;13.346;2022-09-21T01:08:49;12.80;93.30
15844;DHT22;50807;52.436;13.346;2022-09-21T01:09:22;12.80;93.30
15844;DHT22;50807;52.436;13.346;2022-09-21T01:09:56;12.80;93.30
15844;DHT22;50807;52.436;13.346;2022-09-21T01:10:39;12.80;93.30
15844;DHT22;50807;52.436;13.346;2022-09-21T01:11:31;12.80;93.40
15844;DHT22;50807;52.436;13.346;2022-09-21T01:12:17;12.80;93.30
15844;DHT22;50807;52.436;13.346;2022-09-21T01:13:06;12.80;93.30
15844;DHT22;50807;52.436;13.346;2022-09-21T01:13:58;12.80;93.30
15844;DHT22;50807;52.436;13.346;2022-09-21T01:14:55;12.80;93.30
15844;DHT22;50807;52.436;13.346;2022-09-21T01:15:43;12.80;93.30
15844;DHT22;50807;52.436;13.346;2022-09-21T01:16:24;12.80;93.20
15844;DHT22;50807;52.436;13.346;2022-09-21T01:17:09;12.80;93.10
15844;DHT22;50807;52.436;13.346;2022-09-21T01:17:52;12.80;93.20
15844;DHT22;50807;52.436;13.346;2022-09-21T01:18:34;12.80;93.20
15844;DHT22;50807;52.436;13.346;2022-09-21T01:19:25;12.80;93.20
15844;DHT22;50807;52.436;13.346;2022-09-21T01:21:39;12.80;93.30
15844;DHT22;50807;52.436;13.346;2022-09-21T01:22:29;12.80;93.20
15844;DHT22;50807;52.436;13.346;2022-09-21T01:23:21;12.80;93.10
15844;DHT22;50807;52.436;13.346;2022-09-21T01:24:39;12.80;93.10
15844;DHT22;50807;52.436;13.346;2022-09-21T01:25:28;12.90;93.20
15844;DHT22;50807;52.436;13.346;2022-09-21T01:26:13;12.80;93.10
15844;DHT22;50807;52.436;13.346;2022-09-21T01:27:14;12.80;93.10
15844;DHT22;50807;52.436;13.346;2022-09-21T01:28:07;12.80;93.20
15844;DHT22;50807;52.436;13.346;2022-09-21T01:29:11;12.80;93.20
15844;DHT22;50807;52.436;13.346;2022-09-21T01:29:49;12.80;93.20
15844;DHT22;50807;52.436;13.346;2022-09-21T01:30:24;12.80;93.10
15844;DHT22;50807;52.436;13.346;2022-09-21T01:31:00;12.80;93.10
15844;DHT22;50807;52.436;13.346;2022-09-21T01:31:38;12.80;93.20
15844;DHT22;50807;52.436;13.346;2022-09-21T01:32:16;12.70;93.20
15844;DHT22;50807;52.436;13.346;2022-09-21T01:32:55;12.70;93.30
15844;DHT22;50807;52.436;13.346;2022-09-21T01:33:37;12.70;93.40
15844;DHT22;50807;52.436;13.346;2022-09-21T01:34:19;12.70;93.40
15844;DHT22;50807;52.436;13.346;2022-09-21T01:34:59;12.70;93.50
15844;DHT22;50807;52.436;13.346;2022-09-21T01:35:39;12.70;93.50
15844;DHT22;50807;52.436;13.346;2022-09-21T01:36:15;12.70;93.50
15844;DHT22;50807;52.436;13.346;2022-09-21T01:36:53;12.70;93.50
15844;DHT22;50807;52.436;13.346;2022-09-21T01:37:31;12.70;93.60
15844;DHT22;50807;52.436;13.346;2022-09-21T01:38:09;12.70;93.70
15844;DHT22;50807;52.436;13.346;2022-09-21T01:38:47;12.70;93.70
15844;DHT22;50807;52.436;13.346;2022-09-21T01:39:22;12.70;93.70
15844;DHT22;50807;52.436;13.346;2022-09-21T01:39:58;12.60;93.70
15844;DHT22;50807;52.436;13.346;2022-09-21T01:40:38;12.60;93.70
15844;DHT22;50807;52.436;13.346;2022-09-21T01:41:13;12.60;93.70
15844;DHT22;50807;52.436;13.346;2022-09-21T01:41:49;12.70;93.80
15844;DHT22;50807;52.436;13.346;2022-09-21T01:42:24;12.60;93.80
15844;DHT22;50807;52.436;13.346;2022-09-21T01:42:58;12.70;93.80
15844;DHT22;50807;52.436;13.346;2022-09-21T01:43:34;12.60;93.80
15844;DHT22;50807;52.436;13.346;2022-09-21T01:44:12;12.60;93.80
15844;DHT22;50807;52.436;13.346;2022-09-21T01:44:48;12.60;93.90
15844;DHT22;50807;52.436;13.346;2022-09-21T01:45:23;12.60;93.90
15844;DHT22;50807;52.436;13.346;2022-09-21T01:46:02;12.60;93.90
15844;DHT22;50807;52.436;13.346;2022-09-21T01:46:37;12.60;93.90
15844;DHT22;50807;52.436;13.346;2022-09-21T01:47:10;12.60;93.90
15844;DHT22;50807;52.436;13.346;2022-09-21T01:47:45;12.60;94.00
15844;DHT22;50807;52.436;13.346;2022-09-21T01:48:20;12.60;94.00
15844;DHT22;50807;52.436;13.346;2022-09-21T01:48:57;12.60;94.00
15844;DHT22;50807;52.436;13.346;2022-09-21T01:49:38;12.60;94.10
15844;DHT22;50807;52.436;13.346;2022-09-21T01:50:13;12.60;94.10
15844;DHT22;50807;52.436;13.346;2022-09-21T01:50:50;12.60;94.10
15844;DHT22;50807;52.436;13.346;2022-09-21T01:51:25;12.60;94.10
15844;DHT22;50807;52.436;13.346;2022-09-21T01:52:01;12.60;94.20
15844;DHT22;50807;52.436;13.346;2022-09-21T01:52:41;12.60;94.20
15844;DHT22;50807;52.436;13.346;2022-09-21T01:53:19;12.60;94.20
15844;DHT22;50807;52.436;13.346;2022-09-21T01:53:58;12.60;94.20
15844;DHT22;50807;52.436;13.346;2022-09-21T01:54:38;12.60;94.20
15844;DHT22;50807;52.436;13.346;2022-09-21T01:55:16;12.60;94.20
15844;DHT22;50807;52.436;13.346;2022-09-21T01:55:53;12.60;94.20
15844;DHT22;50807;52.436;13.346;2022-09-21T01:56:31;12.60;94.20
15844;DHT22;50807;52.436;13.346;2022-09-21T01:57:09;12.60;94.30
15844;DHT22;50807;52.436;13.346;2022-09-21T01:57:48;12.60;94.30
15844;DHT22;50807;52.436;13.346;2022-09-21T01:58:29;12.60;94.30
15844;DHT22;50807;52.436;13.346;2022-09-21T01:59:10;12.60;94.30
15844;DHT22;50807;52.436;13.346;2022-09-21T01:59:50;12.60;94.40
15844;DHT22;50807;52.436;13.346;2022-09-21T02:00:23;12.60;94.40
15844;DHT22;50807;52.436;13.346;2022-09-21T02:00:56;12.60;94.30
15844;DHT22;50807;52.436;13.346;2022-09-21T02:01:28;12.60;94.30
15844;DHT22;50807;52.436;13.346;2022-09-21T02:02:05;12.60;94.40
15844;DHT22;50807;52.436;13.346;2022-09-21T02:02:46;12.60;94.40
15844;DHT22;50807;52.436;13.346;2022-09-21T02:03:23;12.60;94.50
15844;DHT22;50807;52.436;13.346;2022-09-21T02:04:02;12.50;94.40
15844;DHT22;50807;52.436;13.346;2022-09-21T02:04:37;12.60;94.50
15844;DHT22;50807;52.436;13.346;2022-09-21T02:05:10;12.50;94.40
15844;DHT22;50807;52.436;13.346;2022-09-21T02:05:42;12.50;94.40
15844;DHT22;50807;52.436;13.346;2022-09-21T02:06:14;12.50;94.40
15844;DHT22;50807;52.436;13.346;2022-09-21T02:06:48;12.50;94.50
15844;DHT22;50807;52.436;13.346;2022-09-21T02:07:21;12.50;94.50
15844;DHT22;50807;52.436;13.346;2022-09-21T02:07:52;12.50;94.50
15844;DHT22;50807;52.436;13.346;2022-09-21T02:08:24;12.50;94.50
15844;DHT22;50807;52.436;13.346;2022-09-21T02:08:57;12.50;94.60
15844;DHT22;50807;52.436;13.346;2022-09-21T02:09:28;12.50;94.60
15844;DHT22;50807;52.436;13.346;2022-09-21T02:09:59;12.50;94.60
15844;DHT22;50807;52.436;13.346;2022-09-21T02:10:34;12.50;94.60
15844;DHT22;50807;52.436;13.346;2022-09-21T02:11:10;12.50;94.70
15844;DHT22;50807;52.436;13.346;2022-09-21T02:11:42;12.50;94.70
15844;DHT22;50807;52.436;13.346;2022-09-21T02:12:14;12.50;94.60
15844;DHT22;50807;52.436;13.346;2022-09-21T02:12:46;12.50;94.70
15844;DHT22;50807;52.436;13.346;2022-09-21T02:13:20;12.40;94.60
15844;DHT22;50807;52.436;13.346;2022-09-21T02:13:54;12.50;94.70
15844;DHT22;50807;52.436;13.346;2022-09-21T02:14:27;12.40;94.70
15844;DHT22;50807;52.436;13.346;2022-09-21T02:15:03;12.40;94.70
15844;DHT22;50807;52.436;13.346;2022-09-21T02:15:47;12.40;94.70
15844;DHT22;50807;52.436;13.346;2022-09-21T02:16:35;12.40;94.70
15844;DHT22;50807;52.436;13.346;2022-09-21T02:17:20;12.40;94.80
15844;DHT22;50807;52.436;13.346;2022-09-21T02:18:06;12.50;94.80
15844;DHT22;50807;52.436;13.346;2022-09-21T02:18:51;12.50;94.70
15844;DHT22;50807;52.436;13.346;2022-09-21T02:19:39;12.50;94.70
15844;DHT22;50807;52.436;13.346;2022-09-21T02:20:19;12.50;94.70
15844;DHT22;50807;52.436;13.346;2022-09-21T02:20:56;12.50;94.60
15844;DHT22;50807;52.436;13.346;2022-09-21T02:21:31;12.50;94.60
15844;DHT22;50807;52.436;13.346;2022-09-21T02:22:12;12.40;94.60
15844;DHT22;50807;52.436;13.346;2022-09-21T02:22:56;12.40;94.60
15844;DHT22;50807;52.436;13.346;2022-09-21T02:23:39;12.40;94.60
15844;DHT22;50807;52.436;13.346;2022-09-21T02:24:22;12.40;94.70
15844;DHT22;50807;52.436;13.346;2022-09-21T02:25:06;12.40;94.70
15844;DHT22;50807;52.436;13.346;2022-09-21T02:25:45;12.40;94.70
15844;DHT22;50807;52.436;13.346;2022-09-21T02:26:25;12.40;94.70
15844;DHT22;50807;52.436;13.346;2022-09-21T02:27:04;12.40;94.70
15844;DHT22;50807;52.436;13.346;2022-09-21T02:27:45;12.40;94.70
15844;DHT22;50807;52.436;13.346;2022-09-21T02:28:28;12.40;94.80
15844;DHT22;50807;52.436;13.346;2022-09-21T02:29:12;12.40;94.80
15844;DHT22;50807;52.436;13.346;2022-09-21T02:29:52;12.40;94.80
15844;DHT22;50807;52.436;13.346;2022-09-21T02:30:33;12.40;94.80
15844;DHT22;50807;52.436;13.346;2022-09-21T02:31:11;12.40;94.80
15844;DHT22;50807;52.436;13.346;2022-09-21T02:31:48;12.40;94.90
15844;DHT22;50807;52.436;13.346;2022-09-21T02:32:27;12.40;94.80
15844;DHT22;50807;52.436;13.346;2022-09-21T02:33:09;12.40;94.90
15844;DHT22;50807;52.436;13.346;2022-09-21T02:33:46;12.40;95.20
15844;DHT22;50807;52.436;13.346;2022-09-21T02:34:32;12.30;94.90
15844;DHT22;50807;52.436;13.346;2022-09-21T02:35:14;12.40;94.90
15844;DHT22;50807;52.436;13.346;2022-09-21T02:35:57;12.40;94.90
15844;DHT22;50807;52.436;13.346;2022-09-21T02:36:40;12.30;94.90
15844;DHT22;50807;52.436;13.346;2022-09-21T02:37:20;12.30;94.90
15844;DHT22;50807;52.436;13.346;2022-09-21T02:38:05;12.30;94.90
15844;DHT22;50807;52.436;13.346;2022-09-21T02:38:43;12.30;94.90
15844;DHT22;50807;52.436;13.346;2022-09-21T02:39:27;12.30;94.90
15844;DHT22;50807;52.436;13.346;2022-09-21T02:40:09;12.30;94.90
15844;DHT22;50807;52.436;13.346;2022-09-21T02:40:54;12.30;94.90
15844;DHT22;50807;52.436;13.346;2022-09-21T02:41:36;12.30;94.90
15844;DHT22;50807;52.436;13.346;2022-09-21T02:42:13;12.30;94.90
15844;DHT22;50807;52.436;13.346;2022-09-21T02:42:53;12.30;94.90
15844;DHT22;50807;52.436;13.346;2022-09-21T02:43:32;12.30;95.00
15844;DHT22;50807;52.436;13.346;2022-09-21T02:44:10;12.30;95.00
15844;DHT22;50807;52.436;13.346;2022-09-21T02:44:56;12.30;95.00
15844;DHT22;50807;52.436;13.346;2022-09-21T02:45:37;12.30;95.00
15844;DHT22;50807;52.436;13.346;2022-09-21T02:46:15;12.30;95.00
15844;DHT22;50807;52.436;13.346;2022-09-21T02:46:54;12.30;95.00
15844;DHT22;50807;52.436;13.346;2022-09-21T02:47:31;12.20;95.00
15844;DHT22;50807;52.436;13.346;2022-09-21T02:48:08;12.20;95.00
15844;DHT22;50807;52.436;13.346;2022-09-21T02:48:47;12.20;95.00
15844;DHT22;50807;52.436;13.346;2022-09-21T02:49:24;12.20;95.10
15844;DHT22;50807;52.436;13.346;2022-09-21T02:50:04;12.20;95.10
15844;DHT22;50807;52.436;13.346;2022-09-21T02:50:41;12.20;95.10
15844;DHT22;50807;52.436;13.346;2022-09-21T02:51:18;12.20;95.10
15844;DHT22;50807;52.436;13.346;2022-09-21T02:51:56;12.20;95.10
15844;DHT22;50807;52.436;13.346;2022-09-21T02:52:31;12.20;95.10
15844;DHT22;50807;52.436;13.346;2022-09-21T02:53:04;12.20;95.10
15844;DHT22;50807;52.436;13.346;2022-09-21T02:53:39;12.20;95.10
15844;DHT22;50807;52.436;13.346;2022-09-21T02:54:14;12.20;95.10
15844;DHT22;50807;52.436;13.346;2022-09-21T02:54:49;12.20;95.10
15844;DHT22;50807;52.436;13.346;2022-09-21T02:55:24;12.10;95.20
15844;DHT22;50807;52.436;13.346;2022-09-21T02:55:58;12.10;95.20
15844;DHT22;50807;52.436;13.346;2022-09-21T02:56:33;12.10;95.20
15844;DHT22;50807;52.436;13.346;2022-09-21T02:57:07;12.10;95.20
15844;DHT22;50807;52.436;13.346;2022-09-21T02:57:40;12.10;95.30
15844;DHT22;50807;52.436;13.346;2022-09-21T02:58:13;12.10;95.30
15844;DHT22;50807;52.436;13.346;2022-09-21T02:58:51;12.10;95.30
15844;DHT22;50807;52.436;13.346;2022-09-21T02:59:24;12.10;95.40
15844;DHT22;50807;52.436;13.346;2022-09-21T02:59:57;12.10;95.40
15844;DHT22;50807;52.436;13.346;2022-09-21T03:00:29;12.10;95.50
15844;DHT22;50807;52.436;13.346;2022-09-21T03:01:00;12.10;95.50
15844;DHT22;50807;52.436;13.346;2022-09-21T03:01:32;12.10;95.50
15844;DHT22;50807;52.436;13.346;2022-09-21T03:02:04;12.10;95.50
15844;DHT22;50807;52.436;13.346;2022-09-21T03:02:37;12.10;95.60
15844;DHT22;50807;52.436;13.346;2022-09-21T03:03:17;12.10;95.60
15844;DHT22;50807;52.436;13.346;2022-09-21T03:03:49;12.10;95.70
15844;DHT22;50807;52.436;13.346;2022-09-21T03:04:22;12.10;95.60
15844;DHT22;50807;52.436;13.346;2022-09-21T03:04:53;12.10;95.60
15844;DHT22;50807;52.436;13.346;2022-09-21T03:05:24;12.10;95.60
15844;DHT22;50807;52.436;13.346;2022-09-21T03:05:56;12.10;95.70
15844;DHT22;50807;52.436;13.346;2022-09-21T03:06:27;12.10;95.70
15844;DHT22;50807;52.436;13.346;2022-09-21T03:06:58;12.10;95.70
15844;DHT22;50807;52.436;13.346;2022-09-21T03:07:30;12.10;95.80
15844;DHT22;50807;52.436;13.346;2022-09-21T03:08:01;12.10;95.80
15844;DHT22;50807;52.436;13.346;2022-09-21T03:08:32;12.10;95.80
15844;DHT22;50807;52.436;13.346;2022-09-21T03:09:04;12.10;95.80
15844;DHT22;50807;52.436;13.346;2022-09-21T03:09:34;12.10;95.90
15844;DHT22;50807;52.436;13.346;2022-09-21T03:10:06;12.10;95.90
15844;DHT22;50807;52.436;13.346;2022-09-21T03:10:38;12.00;95.90
15844;DHT22;50807;52.436;13.346;2022-09-21T03:11:10;12.00;95.90
15844;DHT22;50807;52.436;13.346;2022-09-21T03:11:40;12.10;95.90
15844;DHT22;50807;52.436;13.346;2022-09-21T03:12:12;12.00;95.90
15844;DHT22;50807;52.436;13.346;2022-09-21T03:12:43;12.10;96.00
15844;DHT22;50807;52.436;13.346;2022-09-21T03:13:15;12.00;96.00
15844;DHT22;50807;52.436;13.346;2022-09-21T03:13:47;12.00;96.00
15844;DHT22;50807;52.436;13.346;2022-09-21T03:14:18;12.00;96.00
15844;DHT22;50807;52.436;13.346;2022-09-21T03:14:49;12.10;96.10
15844;DHT22;50807;52.436;13.346;2022-09-21T03:15:22;12.00;96.10
15844;DHT22;50807;52.436;13.346;2022-09-21T03:15:59;12.00;96.10
15844;DHT22;50807;52.436;13.346;2022-09-21T03:16:30;12.00;96.20
15844;DHT22;50807;52.436;13.346;2022-09-21T03:17:02;12.00;96.10
15844;DHT22;50807;52.436;13.346;2022-09-21T03:17:33;12.00;96.20
15844;DHT22;50807;52.436;13.346;2022-09-21T03:18:06;12.00;96.20
15844;DHT22;50807;52.436;13.346;2022-09-21T03:18:40;12.00;96.20
15844;DHT22;50807;52.436;13.346;2022-09-21T03:19:13;12.00;96.20
15844;DHT22;50807;52.436;13.346;2022-09-21T03:19:44;12.10;96.30
15844;DHT22;50807;52.436;13.346;2022-09-21T03:20:16;12.00;96.20
15844;DHT22;50807;52.436;13.346;2022-09-21T03:20:47;12.00;96.20
15844;DHT22;50807;52.436;13.346;2022-09-21T03:21:17;12.10;96.30
15844;DHT22;50807;52.436;13.346;2022-09-21T03:21:49;12.00;96.20
15844;DHT22;50807;52.436;13.346;2022-09-21T03:22:20;12.10;96.30
15844;DHT22;50807;52.436;13.346;2022-09-21T03:22:51;12.00;96.30
15844;DHT22;50807;52.436;13.346;2022-09-21T03:23:23;12.10;96.30
15844;DHT22;50807;52.436;13.346;2022-09-21T03:23:54;12.00;96.30
15844;DHT22;50807;52.436;13.346;2022-09-21T03:24:24;12.10;96.30
15844;DHT22;50807;52.436;13.346;2022-09-21T03:25:14;12.10;96.40
15844;DHT22;50807;52.436;13.346;2022-09-21T03:25:46;12.10;96.40
15844;DHT22;50807;52.436;13.346;2022-09-21T03:26:17;12.10;96.30
15844;DHT22;50807;52.436;13.346;2022-09-21T03:26:51;12.10;96.40
15844;DHT22;50807;52.436;13.346;2022-09-21T03:27:23;12.10;96.30
15844;DHT22;50807;52.436;13.346;2022-09-21T03:27:54;12.10;96.40
15844;DHT22;50807;52.436;13.346;2022-09-21T03:28:25;12.10;96.40
15844;DHT22;50807;52.436;13.346;2022-09-21T03:28:57;12.10;96.40
15844;DHT22;50807;52.436;13.346;2022-09-21T03:29:28;12.10;96.40
15844;DHT22;50807;52.436;13.346;2022-09-21T03:29:59;12.00;96.40
15844;DHT22;50807;52.436;13.346;2022-09-21T03:30:32;12.00;96.40
15844;DHT22;50807;52.436;13.346;2022-09-21T03:31:02;12.00;96.40
15844;DHT22;50807;52.436;13.346;2022-09-21T03:31:33;12.00;96.50
15844;DHT22;50807;52.436;13.346;2022-09-21T03:32:04;12.00;96.50
15844;DHT22;50807;52.436;13.346;2022-09-21T03:32:36;12.10;96.50
15844;DHT22;50807;52.436;13.346;2022-09-21T03:33:07;12.00;96.50
15844;DHT22;50807;52.436;13.346;2022-09-21T03:33:38;12.00;96.50
15844;DHT22;50807;52.436;13.346;2022-09-21T03:34:09;12.10;96.60
15844;DHT22;50807;52.436;13.346;2022-09-21T03:34:41;12.00;96.60
15844;DHT22;50807;52.436;13.346;2022-09-21T03:35:12;12.00;96.60
15844;DHT22;50807;52.436;13.346;2022-09-21T03:35:43;12.00;96.60
15844;DHT22;50807;52.436;13.346;2022-09-21T03:36:15;12.00;96.60
15844;DHT22;50807;52.436;13.346;2022-09-21T03:36:47;12.00;96.60
15844;DHT22;50807;52.436;13.346;2022-09-21T03:37:18;12.00;96.60
15844;DHT22;50807;52.436;13.346;2022-09-21T03:37:49;12.00;96.60
15844;DHT22;50807;52.436;13.346;2022-09-21T03:38:21;12.00;96.60
15844;DHT22;50807;52.436;13.346;2022-09-21T03:38:51;12.00;96.60
15844;DHT22;50807;52.436;13.346;2022-09-21T03:39:23;12.00;96.70
15844;DHT22;50807;52.436;13.346;2022-09-21T03:39:54;12.00;96.70
15844;DHT22;50807;52.436;13.346;2022-09-21T03:40:25;12.00;96.70
15844;DHT22;50807;52.436;13.346;2022-09-21T03:40:57;12.00;96.70
15844;DHT22;50807;52.436;13.346;2022-09-21T03:41:27;12.00;96.70
15844;DHT22;50807;52.436;13.346;2022-09-21T03:41:58;12.00;96.70
15844;DHT22;50807;52.436;13.346;2022-09-21T03:42:31;12.00;96.70